Toltec, Arkansas
Current Conditions -  °F | °C
As of 4:43 PM on Friday 19 Dec 2014 (Local Time) from KLIT Reporting Station
Overcast Overcast  
Wind Chill: 41°   Ceiling: 1500
Heat Index: 45°   Visibility: 7mi
Dew Point: 36°   Wind: 7mph
Humidity: 71%   Direction: 30°NNE
Pressure: 30.22"   Gusts: NA
Location:  34.7054°N, 92.1029°W
Report Text: KLIT 192243Z 03006KT 7SM BKN015 OVC047 07/02 A3022 RMK AO2
Loading
Personal Weather Stations






























Interactive Weather Map New forecast layout! Learn more

10-Day Weather Forecast

Advertisements
Track Severe Weather on mobile